createdAt,value
2022-09-11T00:01:49.053Z,99386.34
2022-09-11T00:04:17.567Z,99380.22
2022-09-11T00:06:46.083Z,99390.16
2022-09-11T00:09:15.088Z,99393.72
2022-09-11T00:11:44.345Z,99402.13
2022-09-11T00:14:15.730Z,99411.31
2022-09-11T00:16:46.802Z,99427.34
2022-09-11T00:19:21.035Z,99432.94
2022-09-11T00:21:51.616Z,99428.63
2022-09-11T00:24:21.035Z,99434.50
2022-09-11T00:26:49.561Z,99441.63
2022-09-11T00:29:18.064Z,99436.03
2022-09-11T00:31:46.703Z,99435.53
2022-09-11T00:34:15.269Z,99428.13
2022-09-11T00:36:44.302Z,99429.66
2022-09-11T00:39:15.376Z,99439.59
2022-09-11T00:41:47.194Z,99439.09
2022-09-11T00:44:18.939Z,99449.53
2022-09-11T00:46:55.251Z,99447.50
2022-09-11T00:49:31.578Z,99451.06
2022-09-11T00:52:25.249Z,99453.09
2022-09-11T00:54:59.121Z,99454.63
2022-09-11T00:57:31.624Z,99452.59
2022-09-11T01:00:02.659Z,99463.28
2022-09-11T01:02:35.223Z,99466.34
2022-09-11T01:05:04.769Z,99470.16
2022-09-11T01:07:35.214Z,99467.63
2022-09-11T01:10:06.213Z,99470.69
2022-09-11T01:12:49.497Z,99476.78
2022-09-11T01:15:48.429Z,99465.06
2022-09-11T01:18:28.114Z,99481.16
2022-09-11T01:21:37.374Z,99478.13
2022-09-11T01:24:14.966Z,99479.66
2022-09-11T01:27:20.323Z,99476.34
2022-09-11T01:30:03.191Z,99469.19
2022-09-11T01:32:43.219Z,99470.47
2022-09-11T01:35:25.131Z,99468.19
2022-09-11T01:38:07.401Z,99465.09
2022-09-11T01:40:52.359Z,99467.91
2022-09-11T01:43:28.810Z,99472.25
2022-09-11T01:46:00.804Z,99483.47
2022-09-11T01:48:40.175Z,99489.84
2022-09-11T01:51:14.309Z,99487.03
2022-09-11T01:53:50.216Z,99487.03
2022-09-11T01:56:25.073Z,99492.66
2022-09-11T01:59:01.518Z,99487.81
2022-09-11T02:01:35.439Z,99487.81
2022-09-11T02:04:11.841Z,99505.09
2022-09-11T02:06:51.032Z,99507.66
2022-09-11T02:09:25.114Z,99507.88
2022-09-11T02:11:56.840Z,99510.44
2022-09-11T02:14:43.158Z,99500.50
2022-09-11T02:17:44.781Z,99506.09
2022-09-11T02:20:13.924Z,99501.25
2022-09-11T02:22:43.328Z,99501.25
2022-09-11T02:25:12.724Z,99491.56
2022-09-11T02:27:41.613Z,99491.84
2022-09-11T02:30:11.187Z,99501.78
2022-09-11T02:32:44.746Z,99507.41
2022-09-11T02:35:14.083Z,99499.25
2022-09-11T02:37:57.973Z,99516.81
2022-09-11T02:40:42.740Z,99514.53
2022-09-11T02:43:29.289Z,99514.03
2022-09-11T02:46:06.660Z,99514.03
2022-09-11T02:48:56.797Z,99516.31
2022-09-11T02:52:10.517Z,99511.50
2022-09-11T02:54:42.146Z,99517.88
2022-09-11T02:57:22.271Z,99511.50
2022-09-11T03:00:10.542Z,99501.06
2022-09-11T03:02:44.053Z,99501.81
2022-09-11T03:05:14.566Z,99506.16
2022-09-11T03:07:43.083Z,99497.22
2022-09-11T03:10:12.768Z,99498.25
2022-09-11T03:12:41.287Z,99499.78
2022-09-11T03:15:13.217Z,99498.50
2022-09-11T03:17:42.472Z,99491.63
2022-09-11T03:20:11.060Z,99485.75
2022-09-11T03:22:40.884Z,99483.19
2022-09-11T03:25:09.774Z,99472.75
2022-09-11T03:27:40.574Z,99464.59
2022-09-11T03:30:10.308Z,99466.13
2022-09-11T03:32:38.798Z,99458.72
2022-09-11T03:35:07.648Z,99461.03
2022-09-11T03:37:36.219Z,99442.44
2022-09-11T03:40:05.778Z,99441.16
2022-09-11T03:42:34.471Z,99441.66
2022-09-11T03:45:02.968Z,99439.34
2022-09-11T03:47:31.544Z,99432.47
2022-09-11T03:50:00.020Z,99427.63
2022-09-11T03:52:29.785Z,99429.91
2022-09-11T03:54:58.483Z,99432.22
2022-09-11T03:57:27.278Z,99421.75
2022-09-11T03:59:58.043Z,99417.91
2022-09-11T04:02:26.618Z,99419.94
2022-09-11T04:04:55.164Z,99420.69
2022-09-11T04:07:23.720Z,99413.31
2022-09-11T04:09:52.866Z,99407.44
2022-09-11T04:12:21.361Z,99394.94
2022-09-11T04:14:51.438Z,99394.66
2022-09-11T04:17:20.250Z,99394.63
2022-09-11T04:19:49.329Z,99396.16
2022-09-11T04:22:28.155Z,99389.00
2022-09-11T04:25:04.569Z,99380.06
2022-09-11T04:27:33.038Z,99380.00
2022-09-11T04:30:01.555Z,99373.81
2022-09-11T04:32:30.501Z,99364.63
2022-09-11T04:34:59.275Z,99369.97
2022-09-11T04:37:29.121Z,99365.59
2022-09-11T04:39:57.676Z,99360.94
2022-09-11T04:42:27.509Z,99350.94
2022-09-11T04:44:56.037Z,99352.22
2022-09-11T04:47:24.564Z,99343.00
2022-09-11T04:49:53.400Z,99343.25
2022-09-11T04:52:22.080Z,99339.88
2022-09-11T04:54:50.745Z,99331.16
2022-09-11T04:57:19.435Z,99336.47
2022-09-11T04:59:49.064Z,99334.66
2022-09-11T05:02:17.652Z,99323.66
2022-09-11T05:04:46.147Z,99327.75
2022-09-11T05:07:15.501Z,99322.06
2022-09-11T05:09:43.989Z,99322.28
2022-09-11T05:12:12.513Z,99310.00
2022-09-11T05:14:40.995Z,99307.44
2022-09-11T05:17:09.434Z,99307.66
2022-09-11T05:19:37.910Z,99310.94
2022-09-11T05:22:06.447Z,99299.16
2022-09-11T05:24:34.933Z,99301.44
2022-09-11T05:27:03.510Z,99297.34
2022-09-11T05:29:32.856Z,99295.78
2022-09-11T05:32:01.390Z,99297.53
2022-09-11T05:34:29.987Z,99295.19
2022-09-11T05:36:58.973Z,99293.91
2022-09-11T05:39:27.425Z,99292.09
2022-09-11T05:41:58.944Z,99286.72
2022-09-11T05:44:27.516Z,99285.66
2022-09-11T05:46:56.702Z,99275.13
2022-09-11T05:49:26.570Z,99273.47
2022-09-11T05:51:55.137Z,99269.59
2022-09-11T05:54:23.773Z,99259.88
2022-09-11T05:56:52.268Z,99256.75
2022-09-11T05:59:21.421Z,99243.91
2022-09-11T06:01:50.842Z,99243.81
2022-09-11T06:04:19.721Z,99249.94
2022-09-11T06:06:51.281Z,99246.81
2022-09-11T06:09:19.777Z,99238.06
2022-09-11T06:11:48.533Z,99238.22
2022-09-11T06:14:17.097Z,99231.97
2022-09-11T06:16:45.561Z,99223.94
2022-09-11T06:19:14.060Z,99219.28
2022-09-11T06:21:42.526Z,99222.75
2022-09-11T06:24:11.041Z,99203.50
2022-09-11T06:26:39.628Z,99204.78
2022-09-11T06:29:08.871Z,99192.47
2022-09-11T06:31:37.309Z,99189.88
2022-09-11T06:34:05.856Z,99179.47
2022-09-11T06:36:35.131Z,99174.03
2022-09-11T06:39:03.829Z,99168.41
2022-09-11T06:41:33.025Z,99167.97
2022-09-11T06:44:01.501Z,99161.03
2022-09-11T06:46:30.535Z,99151.09
2022-09-11T06:48:59.120Z,99153.03
2022-09-11T06:51:28.563Z,99143.97
2022-09-11T06:53:59.041Z,99134.44
2022-09-11T06:56:27.658Z,99131.84
2022-09-11T06:58:56.557Z,99134.56
2022-09-11T07:01:26.124Z,99132.41
2022-09-11T07:03:56.227Z,99117.44
2022-09-11T07:06:29.837Z,99118.44
2022-09-11T07:09:03.728Z,99101.31
2022-09-11T07:11:33.755Z,99097.94
2022-09-11T07:14:06.760Z,99092.31
2022-09-11T07:16:36.150Z,99087.66
2022-09-11T07:19:05.813Z,99088.44
2022-09-11T07:21:35.536Z,99083.81
2022-09-11T07:24:05.043Z,99079.69
2022-09-11T07:26:33.578Z,99072.00
2022-09-11T07:29:02.381Z,99063.75
2022-09-11T07:31:34.135Z,99061.38
2022-09-11T07:34:05.983Z,99056.50
2022-09-11T07:36:36.548Z,99045.44
2022-09-11T07:39:05.825Z,99043.03
2022-09-11T07:41:34.439Z,99036.31
2022-09-11T07:44:04.725Z,99027.53
2022-09-11T07:46:34.018Z,99017.97
2022-09-11T07:49:05.573Z,99013.34
2022-09-11T07:51:36.080Z,99009.41
2022-09-11T07:54:04.815Z,99010.94
2022-09-11T07:56:34.998Z,99007.16
2022-09-11T07:59:03.967Z,98999.78
2022-09-11T08:01:34.323Z,98996.72
2022-09-11T08:04:05.656Z,98990.34
2022-09-11T08:06:36.791Z,98986.00
2022-09-11T08:09:16.752Z,98978.84
2022-09-11T08:11:49.698Z,98980.56
2022-09-11T08:14:18.742Z,98974.94
2022-09-11T08:16:47.229Z,98976.47
2022-09-11T08:19:19.751Z,98971.06
2022-09-11T08:21:49.057Z,98964.88
2022-09-11T08:24:19.002Z,98967.91
2022-09-11T08:26:49.092Z,98960.41
2022-09-11T08:29:19.272Z,98952.16
2022-09-11T08:31:47.808Z,98949.34
2022-09-11T08:34:16.639Z,98949.88
2022-09-11T08:36:45.151Z,98953.47
2022-09-11T08:39:13.616Z,98942.19
2022-09-11T08:41:50.955Z,98941.63
2022-09-11T08:44:28.841Z,98951.06
2022-09-11T08:47:03.764Z,98941.09
2022-09-11T08:49:40.495Z,98940.88
2022-09-11T08:52:14.249Z,98952.03
2022-09-11T08:54:44.663Z,98936.22
2022-09-11T08:57:57.487Z,98943.56
2022-09-11T09:00:32.087Z,98953.53
2022-09-11T09:03:48.182Z,98939.44
2022-09-11T09:06:57.350Z,98945.28
2022-09-11T09:09:44.015Z,98946.59
2022-09-11T09:12:33.431Z,98949.41
2022-09-11T09:15:28.764Z,98951.47
2022-09-11T09:18:23.756Z,98942.25
2022-09-11T09:21:21.728Z,98940.00
2022-09-11T09:23:56.511Z,98943.38
2022-09-11T09:26:41.088Z,98937.50
2022-09-11T09:29:18.980Z,98934.50
2022-09-11T09:31:51.117Z,98941.78
2022-09-11T09:34:23.028Z,98946.25
2022-09-11T09:37:05.356Z,98953.69
2022-09-11T09:39:37.260Z,98957.06
2022-09-11T09:42:37.814Z,98957.63
2022-09-11T09:45:45.114Z,98953.81
2022-09-11T09:48:13.975Z,98955.69
2022-09-11T09:50:47.630Z,98959.25
2022-09-11T09:53:51.177Z,98960.22
2022-09-11T09:56:21.412Z,98953.81
2022-09-11T09:58:57.425Z,98953.81
2022-09-11T10:01:41.549Z,98954.59
2022-09-11T10:04:23.653Z,98951.75
2022-09-11T10:07:09.380Z,98957.41
2022-09-11T10:09:46.675Z,98946.69
2022-09-11T10:12:26.921Z,98955.69
2022-09-11T10:15:03.603Z,98955.13
2022-09-11T10:17:35.888Z,98960.22
2022-09-11T10:20:27.110Z,98961.94
2022-09-11T10:22:57.157Z,98970.06
2022-09-11T10:25:28.214Z,98966.50
2022-09-11T10:28:13.210Z,98972.13
2022-09-11T10:30:47.687Z,98976.25
2022-09-11T10:33:36.716Z,98988.06
2022-09-11T10:36:09.483Z,98990.66
2022-09-11T10:38:44.237Z,98988.41
2022-09-11T10:41:16.080Z,98984.06
2022-09-11T10:44:02.838Z,98989.28
2022-09-11T10:46:39.494Z,98991.13
2022-09-11T10:49:08.119Z,98995.81
2022-09-11T10:51:46.807Z,99002.53
2022-09-11T10:54:21.639Z,99005.13
2022-09-11T10:57:17.322Z,99002.63
2022-09-11T11:00:10.537Z,99012.88
2022-09-11T11:02:47.007Z,99016.03
2022-09-11T11:05:32.437Z,99029.16
2022-09-11T11:08:10.036Z,99038.16
2022-09-11T11:11:04.989Z,99036.41
2022-09-11T11:13:43.591Z,99045.94
2022-09-11T11:16:24.460Z,99046.28
2022-09-11T11:19:09.918Z,99047.16
2022-09-11T11:22:05.221Z,99049.28
2022-09-11T11:24:51.237Z,99047.56
2022-09-11T11:27:46.797Z,99055.56
2022-09-11T11:30:25.132Z,99063.78
2022-09-11T11:33:38.476Z,99078.94
2022-09-11T11:36:22.204Z,99071.59
2022-09-11T11:39:01.726Z,99072.66
2022-09-11T11:41:45.623Z,99076.56
2022-09-11T11:44:22.446Z,99074.81
2022-09-11T11:46:56.608Z,99077.16
2022-09-11T11:49:50.791Z,99088.72
2022-09-11T11:52:37.447Z,99096.19
2022-09-11T11:55:15.647Z,99091.09
2022-09-11T11:57:57.179Z,99095.75
2022-09-11T12:00:31.142Z,99091.19
2022-09-11T12:03:08.613Z,99095.31
2022-09-11T12:05:39.629Z,99105.56
2022-09-11T12:08:15.071Z,99097.66
2022-09-11T12:10:53.093Z,99106.13
2022-09-11T12:13:31.194Z,99105.88
2022-09-11T12:16:17.199Z,99110.75
2022-09-11T12:19:16.162Z,99121.03
2022-09-11T12:22:12.146Z,99119.47
2022-09-11T12:24:53.485Z,99121.84
2022-09-11T12:27:37.412Z,99125.97
2022-09-11T12:30:17.702Z,99125.75
2022-09-11T12:32:55.117Z,99129.84
2022-09-11T12:35:49.618Z,99127.56
2022-09-11T12:38:31.356Z,99137.31
2022-09-11T12:41:08.489Z,99129.63
2022-09-11T12:43:36.985Z,99126.59
2022-09-11T12:46:10.098Z,99118.69
2022-09-11T12:49:05.686Z,99125.06
2022-09-11T12:51:42.217Z,99130.69
2022-09-11T12:54:19.545Z,99139.91
2022-09-11T12:56:54.677Z,99146.81
2022-09-11T12:59:45.303Z,99160.88
2022-09-11T13:02:39.256Z,99171.91
2022-09-11T13:05:19.897Z,99181.09
2022-09-11T13:07:54.029Z,99186.72
2022-09-11T13:10:38.397Z,99187.50
2022-09-11T13:13:28.372Z,99190.31
2022-09-11T13:15:59.074Z,99181.09
2022-09-11T13:18:34.148Z,99182.41
2022-09-11T13:21:26.358Z,99192.66
2022-09-11T13:23:55.452Z,99198.06
2022-09-11T13:26:28.534Z,99199.34
2022-09-11T13:29:00.109Z,99209.84
2022-09-11T13:31:38.409Z,99204.00
2022-09-11T13:34:15.109Z,99212.44
2022-09-11T13:36:44.098Z,99213.72
2022-09-11T13:39:15.863Z,99216.53
2022-09-11T13:41:45.648Z,99221.41
2022-09-11T13:44:43.189Z,99219.09
2022-09-11T13:47:22.699Z,99226.00
2022-09-11T13:49:59.927Z,99235.72
2022-09-11T13:52:31.925Z,99235.72
2022-09-11T13:55:11.270Z,99233.69
2022-09-11T13:58:03.241Z,99239.03
2022-09-11T14:00:49.907Z,99236.22
2022-09-11T14:03:21.643Z,99241.09
2022-09-11T14:05:53.087Z,99253.09
2022-09-11T14:08:36.315Z,99262.28
2022-09-11T14:11:11.801Z,99264.34
2022-09-11T14:13:46.631Z,99265.09
2022-09-11T14:16:15.215Z,99258.72
2022-09-11T14:19:07.864Z,99263.06
2022-09-11T14:21:39.959Z,99257.44
2022-09-11T14:24:28.725Z,99262.28
2022-09-11T14:26:59.954Z,99264.34
2022-09-11T14:29:39.093Z,99260.03
2022-09-11T14:32:35.839Z,99267.69
2022-09-11T14:35:07.644Z,99272.53
2022-09-11T14:37:45.064Z,99273.06
2022-09-11T14:40:19.819Z,99275.88
2022-09-11T14:42:49.576Z,99274.13
2022-09-11T14:45:25.586Z,99282.56
2022-09-11T14:47:54.661Z,99290.75
2022-09-11T14:50:25.188Z,99285.66
2022-09-11T14:52:53.889Z,99299.72
2022-09-11T14:55:22.560Z,99305.88
2022-09-11T14:57:51.494Z,99297.72
2022-09-11T15:00:21.046Z,99301.81
2022-09-11T15:02:49.582Z,99311.53
2022-09-11T15:05:23.993Z,99309.03
2022-09-11T15:07:54.043Z,99318.75
2022-09-11T15:10:23.009Z,99316.47
2022-09-11T15:12:51.592Z,99319.03
2022-09-11T15:15:20.313Z,99315.47
2022-09-11T15:17:48.769Z,99309.63
2022-09-11T15:20:17.463Z,99312.94
2022-09-11T15:22:46.239Z,99311.41
2022-09-11T15:25:14.840Z,99313.97
2022-09-11T15:27:43.520Z,99309.66
2022-09-11T15:30:12.437Z,99314.50
2022-09-11T15:32:41.042Z,99312.22
2022-09-11T15:35:10.508Z,99322.72
2022-09-11T15:37:39.164Z,99321.94
2022-09-11T15:40:08.632Z,99311.22
2022-09-11T15:42:39.719Z,99316.09
2022-09-11T15:45:09.380Z,99313.81
2022-09-11T15:47:37.980Z,99313.03
2022-09-11T15:50:07.448Z,99305.13
2022-09-11T15:52:37.417Z,99305.13
2022-09-11T15:55:06.263Z,99309.47
2022-09-11T15:57:35.649Z,99299.28
2022-09-11T16:00:05.173Z,99299.28
2022-09-11T16:02:33.600Z,99291.38
2022-09-11T16:05:02.836Z,99285.75
2022-09-11T16:07:31.375Z,99287.56
2022-09-11T16:10:00.093Z,99293.72
2022-09-11T16:12:28.627Z,99295.00
2022-09-11T16:14:57.160Z,99297.59
2022-09-11T16:17:31.753Z,99289.69
2022-09-11T16:20:00.377Z,99286.09
2022-09-11T16:22:32.354Z,99280.22
2022-09-11T16:25:00.920Z,99281.00
2022-09-11T16:27:29.435Z,99278.19
2022-09-11T16:32:47.217Z,99287.91
2022-09-11T16:35:15.973Z,99286.38
2022-09-11T16:37:45.238Z,99287.66
2022-09-11T16:40:13.813Z,99282.56
2022-09-11T16:42:42.382Z,99279.00
2022-09-11T16:45:11.275Z,99284.63
2022-09-11T16:47:39.974Z,99289.47
2022-09-11T16:50:08.949Z,99290.75
2022-09-11T16:52:37.634Z,99288.47
2022-09-11T16:55:08.359Z,99282.09
2022-09-11T16:57:37.137Z,99283.38
2022-09-11T17:00:08.923Z,99281.84
2022-09-11T17:02:38.529Z,99284.66
2022-09-11T17:05:09.235Z,99276.25
2022-09-11T17:07:38.156Z,99274.19
2022-09-11T17:10:07.032Z,99272.16
2022-09-11T17:12:35.539Z,99270.63
2022-09-11T17:15:04.313Z,99273.44
2022-09-11T17:17:32.852Z,99279.56
2022-09-11T17:20:01.422Z,99275.25
2022-09-11T17:22:30.761Z,99274.47
2022-09-11T17:24:59.365Z,99270.91
2022-09-11T17:27:28.453Z,99258.91
2022-09-11T17:29:58.460Z,99260.97
2022-09-11T17:32:29.164Z,99259.69
2022-09-11T17:34:59.498Z,99253.53
2022-09-11T17:37:28.665Z,99256.88
2022-09-11T17:39:57.249Z,99261.72
2022-09-11T17:42:26.166Z,99263.25
2022-09-11T17:44:54.694Z,99259.91
2022-09-11T17:47:23.547Z,99259.16
2022-09-11T17:49:52.194Z,99254.53
2022-09-11T17:52:21.358Z,99259.91
2022-09-11T17:54:50.176Z,99255.06
2022-09-11T17:57:18.762Z,99247.91
2022-09-11T17:59:51.423Z,99238.19
2022-09-11T18:02:20.829Z,99241.00
2022-09-11T18:04:49.636Z,99232.56
2022-09-11T18:07:19.215Z,99229.75
2022-09-11T18:09:48.118Z,99226.19
2022-09-11T18:12:16.904Z,99226.94
2022-09-11T18:14:45.379Z,99230.53
2022-09-11T18:17:13.937Z,99217.75
2022-09-11T18:19:42.655Z,99220.56
2022-09-11T18:22:11.210Z,99216.25
2022-09-11T18:24:40.048Z,99212.66
2022-09-11T18:27:09.959Z,99214.72
2022-09-11T18:29:40.301Z,99213.97
2022-09-11T18:32:10.128Z,99200.66
2022-09-11T18:34:39.586Z,99200.66
2022-09-11T18:37:08.881Z,99203.47
2022-09-11T18:39:38.164Z,99197.34
2022-09-11T18:42:08.209Z,99194.53
2022-09-11T18:44:36.807Z,99190.19
2022-09-11T18:47:05.446Z,99193.75
2022-09-11T18:49:35.869Z,99190.19
2022-09-11T18:52:04.625Z,99186.63
2022-09-11T18:54:34.770Z,99182.28
2022-09-11T18:57:04.556Z,99194.28
2022-09-11T18:59:33.065Z,99189.19
2022-09-11T19:02:01.826Z,99185.63
2022-09-11T19:04:30.444Z,99180.78
2022-09-11T19:07:00.253Z,99174.41
2022-09-11T19:09:30.311Z,99178.50
2022-09-11T19:12:00.225Z,99176.97
2022-09-11T19:14:28.985Z,99171.34
2022-09-11T19:16:57.518Z,99174.91
2022-09-11T19:19:26.938Z,99167.78
2022-09-11T19:21:55.511Z,99164.97
2022-09-11T19:24:29.188Z,99164.75
2022-09-11T19:26:59.727Z,99163.22
2022-09-11T19:29:28.730Z,99160.91
2022-09-11T19:31:57.274Z,99162.47
2022-09-11T19:34:25.979Z,99156.09
2022-09-11T19:36:54.527Z,99154.53
2022-09-11T19:39:23.092Z,99154.31
2022-09-11T19:41:51.900Z,99158.41
2022-09-11T19:44:21.846Z,99158.91
2022-09-11T19:46:54.415Z,99155.84
2022-09-11T19:49:23.084Z,99157.66
2022-09-11T19:51:54.519Z,99153.34
2022-09-11T19:54:24.003Z,99160.25
2022-09-11T19:56:52.602Z,99158.72
2022-09-11T19:59:21.325Z,99157.97
2022-09-11T20:01:49.942Z,99157.72
2022-09-11T20:04:20.123Z,99158.25
2022-09-11T20:09:32.058Z,99153.41
2022-09-11T20:12:01.915Z,99151.13
2022-09-11T20:14:31.563Z,99149.59
2022-09-11T20:17:01.671Z,99150.34
2022-09-11T20:19:30.393Z,99146.78
2022-09-11T20:22:00.440Z,99145.25
2022-09-11T20:24:29.252Z,99131.00
2022-09-11T20:26:57.710Z,99139.94
2022-09-11T20:29:26.246Z,99139.94
2022-09-11T20:31:56.165Z,99135.63
2022-09-11T20:34:28.943Z,99140.47
2022-09-11T20:36:58.033Z,99126.97
2022-09-11T20:39:26.647Z,99138.94
2022-09-11T20:41:55.140Z,99133.88
2022-09-11T20:44:25.458Z,99134.38
2022-09-11T20:46:54.066Z,99132.88
2022-09-11T20:49:22.531Z,99141.28
2022-09-11T20:51:51.100Z,99134.91
2022-09-11T20:54:19.579Z,99133.38
2022-09-11T20:56:48.048Z,99131.34
2022-09-11T20:59:16.886Z,99130.56
2022-09-11T21:01:45.418Z,99131.06
2022-09-11T21:04:13.973Z,99131.06
2022-09-11T21:06:42.505Z,99133.13
2022-09-11T21:09:13.080Z,99126.53
2022-09-11T21:11:45.121Z,99129.31
2022-09-11T21:14:15.157Z,99126.53
2022-09-11T21:16:43.832Z,99130.63
2022-09-11T21:19:12.439Z,99136.22
2022-09-11T21:21:44.023Z,99126.28
2022-09-11T21:24:14.747Z,99126.28
2022-09-11T21:26:43.824Z,99126.28
2022-09-11T21:29:14.540Z,99121.97
2022-09-11T21:31:43.054Z,99131.91
2022-09-11T21:34:11.910Z,99126.28
2022-09-11T21:36:40.939Z,99125.53
2022-09-11T21:39:09.863Z,99131.13
2022-09-11T21:41:38.446Z,99133.94
2022-09-11T21:44:07.075Z,99136.53
2022-09-11T21:46:35.931Z,99137.81
2022-09-11T21:49:04.547Z,99135.75
2022-09-11T21:51:33.062Z,99133.72
2022-09-11T21:54:02.738Z,99133.47
2022-09-11T21:56:33.473Z,99137.81
2022-09-11T21:59:02.418Z,99138.31
2022-09-11T22:01:32.904Z,99139.09
2022-09-11T22:04:01.591Z,99138.31
2022-09-11T22:06:31.246Z,99144.69
2022-09-11T22:09:00.428Z,99149.03
2022-09-11T22:11:29.029Z,99145.47
2022-09-11T22:13:57.553Z,99146.00
2022-09-11T22:16:26.269Z,99152.38
2022-09-11T22:18:56.182Z,99151.59
2022-09-11T22:21:25.139Z,99154.41
2022-09-11T22:23:53.757Z,99150.09
2022-09-11T22:26:24.920Z,99145.75
2022-09-11T22:28:53.866Z,99149.31
2022-09-11T22:31:25.175Z,99148.56
2022-09-11T22:33:55.239Z,99145.75
2022-09-11T22:36:27.321Z,99160.56
2022-09-11T22:38:57.064Z,99158.50
2022-09-11T22:41:25.933Z,99162.59
2022-09-11T22:43:54.518Z,99169.72
2022-09-11T22:46:23.194Z,99165.63
2022-09-11T22:48:52.020Z,99165.63
2022-09-11T22:51:20.658Z,99169.72
2022-09-11T22:53:49.282Z,99174.06
2022-09-11T22:56:18.128Z,99178.91
2022-09-11T22:58:46.887Z,99177.63
2022-09-11T23:01:21.855Z,99176.09
2022-09-11T23:03:52.459Z,99178.16
2022-09-11T23:06:40.108Z,99173.28
2022-09-11T23:09:14.179Z,99172.78
2022-09-11T23:11:42.748Z,99169.44
2022-09-11T23:14:14.350Z,99173.78
2022-09-11T23:16:43.933Z,99176.59
2022-09-11T23:19:15.295Z,99174.53
2022-09-11T23:21:44.519Z,99168.91
2022-09-11T23:24:15.504Z,99171.19
2022-09-11T23:26:46.287Z,99176.06
2022-09-11T23:29:15.805Z,99176.81
2022-09-11T23:31:45.308Z,99183.19
2022-09-11T23:34:17.379Z,99183.94
2022-09-11T23:36:46.391Z,99187.53
2022-09-11T23:39:15.337Z,99190.56
2022-09-11T23:41:43.903Z,99196.94
2022-09-11T23:44:12.892Z,99201.28
2022-09-11T23:46:41.517Z,99203.56
2022-09-11T23:49:11.347Z,99211.47
2022-09-11T23:51:39.945Z,99209.66
2022-09-11T23:54:09.168Z,99219.09
2022-09-11T23:56:37.674Z,99220.09
2022-09-11T23:59:06.231Z,99225.19
